Time;durP1;ratioP1;P1;durP2;ratioP2;P2;SDS_P1;SDS_P2;PMS_P1;PMS_P2;Temp;Humidity;BMP_temperature;BMP_pressure;BME280_temperature;BME280_humidity;BME280_pressure;Samples;Min_cycle;Max_cycle;Signal;HPM_P1;HPM_P2
2023/04/22 00:00:18;;;;;;;21.33;19.05;;;;;;;11.58;68.22;100301.56;694861;28;1303;-82
2023/04/22 00:00:40;;;;;;;22.23;19.17;;;;;;;11.53;67.98;100298.88;686711;28;1121;-82
2023/04/22 00:01:01;;;;;;;22.80;19.05;;;;;;;11.58;68.09;100309.41;686602;28;1193;-82
2023/04/22 00:01:23;;;;;;;23.17;18.90;;;;;;;11.49;68.15;100297.09;686625;28;1922;-82
2023/04/22 00:01:44;;;;;;;22.70;18.30;;;;;;;11.48;68.25;100293.56;689282;28;1256;-82
2023/04/22 00:02:05;;;;;;;22.20;18.02;;;;;;;11.46;68.08;100284.84;686427;28;1226;-82
2023/04/22 00:02:25;;;;;;;20.60;17.60;;;;;;;11.52;68.19;100298.03;689053;28;1231;-83
2023/04/22 00:02:46;;;;;;;21.20;18.20;;;;;;;11.47;68.01;100285.72;686428;28;1189;-82
2023/04/22 00:03:07;;;;;;;21.90;18.65;;;;;;;11.57;68.33;100302.44;688838;28;1204;-82
2023/04/22 00:03:28;;;;;;;22.67;19.50;;;;;;;11.56;68.21;100306.75;686286;28;1191;-82
2023/04/22 00:03:48;;;;;;;23.20;19.60;;;;;;;11.45;68.11;100284.81;681126;29;754;-81
2023/04/22 00:04:10;;;;;;;23.70;19.95;;;;;;;11.50;68.04;100291.88;683677;29;982;-82
2023/04/22 00:04:30;;;;;;;23.30;19.67;;;;;;;11.56;67.96;100306.75;683566;29;1236;-82
2023/04/22 00:04:51;;;;;;;22.92;19.90;;;;;;;11.46;68.16;100294.41;686476;28;1442;-82
2023/04/22 00:05:13;;;;;;;23.25;20.00;;;;;;;11.47;68.13;100302.28;683581;28;1226;-81
2023/04/22 00:05:33;;;;;;;25.33;20.48;;;;;;;11.48;68.34;100304.03;683436;28;1115;-82
2023/04/22 00:05:54;;;;;;;27.73;20.98;;;;;;;11.47;68.02;100299.66;686245;28;1211;-82
2023/04/22 00:06:15;;;;;;;28.42;21.20;;;;;;;11.44;68.21;100296.13;688886;28;1256;-82
2023/04/22 00:06:36;;;;;;;29.35;22.52;;;;;;;11.46;68.09;100307.47;686266;28;1466;-81
2023/04/22 00:06:57;;;;;;;28.77;22.63;;;;;;;11.46;68.27;100307.47;686134;28;1248;-82
2023/04/22 00:07:17;;;;;;;29.23;22.70;;;;;;;11.50;67.93;100317.13;683351;28;1259;-82
2023/04/22 00:07:39;;;;;;;27.20;21.73;;;;;;;11.51;68.23;100322.34;686056;28;1193;-82
2023/04/22 00:08:00;;;;;;;26.58;21.58;;;;;;;11.38;68.38;100302.13;688784;28;1215;-82
2023/04/22 00:08:21;;;;;;;28.17;21.50;;;;;;;11.39;68.23;100306.50;685840;28;1370;-82
2023/04/22 00:08:41;;;;;;;28.38;21.10;;;;;;;11.44;68.06;100312.66;683495;28;1199;-82
2023/04/22 00:09:02;;;;;;;26.70;20.60;;;;;;;11.39;68.09;100301.28;683422;29;1083;-83
2023/04/22 00:09:23;;;;;;;23.50;19.50;;;;;;;11.33;67.99;100298.53;686077;28;1013;-82
2023/04/22 00:09:44;;;;;;;23.42;19.52;;;;;;;11.36;67.98;100303.81;686101;28;1217;-82
2023/04/22 00:10:06;;;;;;;23.98;19.55;;;;;;;11.40;68.44;100316.09;680604;28;1347;-82
2023/04/22 00:10:27;;;;;;;24.23;20.00;;;;;;;11.34;68.26;100305.53;683322;29;975;-82
2023/04/22 00:10:48;;;;;;;24.73;20.63;;;;;;;11.35;68.29;100313.41;688690;28;1065;-82
2023/04/22 00:11:09;;;;;;;25.70;20.73;;;;;;;11.29;67.97;100302.84;688704;28;1236;-82
2023/04/22 00:11:30;;;;;;;25.60;20.42;;;;;;;11.33;68.68;100309.00;685948;28;1197;-82
2023/04/22 00:11:51;;;;;;;24.75;20.35;;;;;;;11.40;68.61;100320.41;686181;28;744;-83
2023/04/22 00:12:12;;;;;;;24.10;20.40;;;;;;;11.35;68.53;100308.16;688710;28;1060;-82
2023/04/22 00:12:33;;;;;;;24.47;21.40;;;;;;;11.42;68.53;100318.72;693886;28;1195;-82
2023/04/22 00:12:54;;;;;;;27.27;21.48;;;;;;;11.43;68.31;100321.34;683421;28;1241;-82
2023/04/22 00:13:14;;;;;;;28.77;22.17;;;;;;;11.42;68.18;100316.97;683339;29;1193;-82
2023/04/22 00:13:35;;;;;;;28.93;20.97;;;;;;;11.40;68.01;100315.19;691059;28;1297;-82
2023/04/22 00:13:56;;;;;;;25.75;20.35;;;;;;;11.40;68.32;100313.47;688673;28;1410;-81
2023/04/22 00:14:17;;;;;;;24.97;20.30;;;;;;;11.40;68.08;100310.88;685878;28;1209;-82
2023/04/22 00:14:38;;;;;;;24.50;20.90;;;;;;;11.41;68.15;100317.84;682900;28;1213;-83
2023/04/22 00:14:59;;;;;;;24.75;21.35;;;;;;;11.41;68.08;100312.63;686050;28;1107;-83
2023/04/22 00:15:20;;;;;;;25.20;21.20;;;;;;;11.36;67.96;100309.03;685975;28;1215;-82
2023/04/22 00:15:41;;;;;;;25.90;21.15;;;;;;;11.09;68.34;100298.16;683391;29;1320;-82
2023/04/22 00:16:04;;;;;;;27.23;21.40;;;;;;;11.01;68.81;100301.47;683328;29;1092;-82
2023/04/22 00:16:26;;;;;;;27.55;21.20;;;;;;;11.01;69.05;100319.72;683213;29;1296;-82
2023/04/22 00:16:47;;;;;;;27.25;21.20;;;;;;;10.91;69.48;100316.94;686099;28;1523;-81
2023/04/22 00:17:07;;;;;;;25.73;21.53;;;;;;;10.89;69.41;100318.66;685791;28;1129;-82
2023/04/22 00:17:28;;;;;;;25.70;21.70;;;;;;;10.75;69.52;100300.09;683292;29;992;-84
2023/04/22 00:17:49;;;;;;;25.97;21.70;;;;;;;10.80;69.99;100316.75;686023;28;1213;-85
2023/04/22 00:18:12;;;;;;;25.70;21.03;;;;;;;10.68;69.64;100301.72;691275;28;1449;-84
2023/04/22 00:18:34;;;;;;;25.70;20.70;;;;;;;10.87;69.91;100304.69;691328;28;1077;-84
2023/04/22 00:18:55;;;;;;;25.95;20.83;;;;;;;10.92;69.61;100302.16;683224;28;1294;-84
2023/04/22 00:19:16;;;;;;;27.67;20.70;;;;;;;10.97;69.21;100301.41;685911;28;1218;-84
2023/04/22 00:19:36;;;;;;;28.33;20.65;;;;;;;10.96;69.00;100299.63;685908;28;1191;-83
2023/04/22 00:19:58;;;;;;;26.25;19.90;;;;;;;10.95;68.89;100295.25;683111;28;1438;-82
2023/04/22 00:20:20;;;;;;;24.80;20.05;;;;;;;10.95;68.78;100287.44;685963;28;1086;-81
2023/04/22 00:20:42;;;;;;;23.88;19.63;;;;;;;11.07;68.76;100307.66;686161;28;906;-82
2023/04/22 00:21:05;;;;;;;23.98;19.90;;;;;;;11.02;68.92;100309.34;683070;28;1281;-83
2023/04/22 00:21:26;;;;;;;24.10;20.05;;;;;;;11.06;68.75;100305.06;683228;28;1918;-82
2023/04/22 00:21:46;;;;;;;24.50;20.52;;;;;;;11.04;68.91;100298.91;686028;28;1372;-82
2023/04/22 00:22:07;;;;;;;24.52;20.67;;;;;;;11.06;68.69;100297.22;688605;28;1111;-82
2023/04/22 00:22:28;;;;;;;24.07;20.37;;;;;;;11.09;69.10;100307.69;688756;28;1000;-82
2023/04/22 00:22:49;;;;;;;24.35;20.50;;;;;;;11.15;69.12;100315.66;686053;28;1282;-82
2023/04/22 00:23:10;;;;;;;25.38;20.02;;;;;;;11.07;68.86;100296.34;690770;28;1302;-82
2023/04/22 00:23:31;;;;;;;24.83;19.85;;;;;;;11.10;68.80;100296.41;688599;28;1028;-82
2023/04/22 00:23:51;;;;;;;26.57;20.57;;;;;;;11.14;68.88;100302.56;685885;28;1164;-84
2023/04/22 00:24:12;;;;;;;26.10;21.48;;;;;;;11.10;68.57;100293.78;682964;28;1186;-84
2023/04/22 00:24:32;;;;;;;26.60;21.50;;;;;;;11.06;68.53;100286.78;685968;28;887;-84
2023/04/22 00:24:53;;;;;;;25.25;20.75;;;;;;;11.09;68.27;100294.66;686113;28;769;-84
2023/04/22 00:25:15;;;;;;;25.15;20.20;;;;;;;11.16;68.44;100311.28;688571;28;1166;-84
2023/04/22 00:25:35;;;;;;;25.00;20.25;;;;;;;11.06;68.31;100292.00;688523;28;1347;-84
2023/04/22 00:25:56;;;;;;;24.45;20.25;;;;;;;11.02;68.48;100292.78;688621;28;1182;-84
2023/04/22 00:26:17;;;;;;;23.90;20.40;;;;;;;11.06;68.44;100294.59;683198;29;1199;-84
2023/04/22 00:26:37;;;;;;;23.20;19.87;;;;;;;11.06;68.65;100305.06;683166;28;1114;-84
2023/04/22 00:26:58;;;;;;;23.30;19.60;;;;;;;11.06;68.49;100302.44;685963;28;1328;-84
2023/04/22 00:27:18;;;;;;;22.80;18.83;;;;;;;11.04;68.37;100307.63;685652;28;1275;-84
2023/04/22 00:27:39;;;;;;;22.30;18.80;;;;;;;11.01;68.29;100291.00;686009;28;918;-84
2023/04/22 00:28:00;;;;;;;22.88;19.38;;;;;;;10.99;68.24;100314.47;683239;29;1133;-84
2023/04/22 00:28:20;;;;;;;24.17;20.00;;;;;;;11.01;68.20;100301.47;680545;29;1169;-84
2023/04/22 00:28:41;;;;;;;24.77;19.70;;;;;;;11.02;68.31;100311.03;683323;28;1161;-84
2023/04/22 00:29:02;;;;;;;23.08;18.95;;;;;;;11.00;68.32;100294.47;683250;28;1185;-84
2023/04/22 00:29:24;;;;;;;23.07;19.00;;;;;;;10.99;68.61;100298.81;683278;28;973;-85
2023/04/22 00:29:45;;;;;;;23.17;19.73;;;;;;;11.00;68.63;100302.31;680592;28;1244;-84
2023/04/22 00:30:06;;;;;;;24.73;20.40;;;;;;;11.03;68.53;100310.19;680528;29;1214;-84
2023/04/22 00:30:26;;;;;;;25.20;20.63;;;;;;;11.03;68.42;100303.25;683171;28;1379;-83
2023/04/22 00:30:47;;;;;;;24.67;20.67;;;;;;;11.08;68.50;100319.00;685954;28;1271;-84
2023/04/22 00:31:07;;;;;;;25.60;21.37;;;;;;;11.08;68.21;100305.94;685864;28;1396;-84
2023/04/22 00:31:28;;;;;;;24.90;20.60;;;;;;;10.98;68.43;100302.28;683072;29;1209;-84
2023/04/22 00:31:49;;;;;;;25.17;20.63;;;;;;;11.11;68.30;100313.81;683357;29;1342;-84
2023/04/22 00:32:10;;;;;;;23.33;19.83;;;;;;;11.06;68.22;100295.47;685812;28;1306;-84
2023/04/22 00:32:30;;;;;;;24.20;19.92;;;;;;;11.01;68.29;100297.13;683182;28;1157;-84
2023/04/22 00:32:52;;;;;;;23.00;19.63;;;;;;;11.00;68.42;100295.34;683259;28;1169;-84
2023/04/22 00:33:12;;;;;;;22.60;19.80;;;;;;;11.02;67.99;100292.78;683349;29;1169;-84
2023/04/22 00:33:33;;;;;;;22.20;19.80;;;;;;;11.03;68.35;100307.59;680563;29;1188;-84
2023/04/22 00:33:53;;;;;;;22.67;19.90;;;;;;;10.92;68.32;100295.22;683296;29;1136;-84
2023/04/22 00:34:16;;;;;;;23.57;19.17;;;;;;;10.92;68.32;100295.22;683235;28;1260;-84
2023/04/22 00:34:37;;;;;;;23.40;18.83;;;;;;;10.92;68.46;100307.38;685523;28;1404;-83
2023/04/22 00:34:57;;;;;;;23.58;18.85;;;;;;;10.94;68.26;100296.13;685774;28;1064;-84
2023/04/22 00:35:18;;;;;;;24.10;20.10;;;;;;;11.00;68.56;100304.94;685917;28;1087;-84
2023/04/22 00:35:39;;;;;;;26.77;20.40;;;;;;;10.93;68.35;100289.13;685883;28;894;-84
2023/04/22 00:35:59;;;;;;;31.70;20.85;;;;;;;11.00;68.30;100299.69;685841;28;1080;-84
2023/04/22 00:36:20;;;;;;;32.50;20.63;;;;;;;10.95;68.34;100287.44;688465;28;1304;-84
2023/04/22 00:36:40;;;;;;;31.63;20.73;;;;;;;10.94;68.08;100288.28;685877;28;1236;-84
2023/04/22 00:37:01;;;;;;;27.52;20.10;;;;;;;11.03;68.32;100297.13;685837;28;1048;-84
2023/04/22 00:37:23;;;;;;;24.95;19.55;;;;;;;11.06;68.20;100298.06;685953;28;1220;-84
2023/04/22 00:37:43;;;;;;;24.23;19.35;;;;;;;11.06;68.10;100294.59;683316;28;1372;-84
2023/04/22 00:38:04;;;;;;;23.60;18.97;;;;;;;11.06;68.18;100299.81;685812;28;1299;-84
2023/04/22 00:38:25;;;;;;;24.77;19.50;;;;;;;11.01;67.84;100288.41;683186;28;1096;-84
2023/04/22 00:38:49;;;;;;;24.50;19.50;;;;;;;11.06;67.71;100300.69;685848;28;1233;-83
2023/04/22 00:39:10;;;;;;;23.50;19.17;;;;;;;10.99;67.81;100287.50;683147;28;1101;-84
2023/04/22 00:39:30;;;;;;;21.95;18.90;;;;;;;11.02;68.04;100313.66;685739;28;1404;-84
2023/04/22 00:39:51;;;;;;;22.37;19.07;;;;;;;10.89;67.97;100279.50;685935;28;1291;-84
2023/04/22 00:40:12;;;;;;;21.42;18.60;;;;;;;10.93;68.06;100303.91;685994;28;1331;-84
2023/04/22 00:40:32;;;;;;;20.65;18.15;;;;;;;10.85;67.98;100285.50;683159;28;1314;-84
2023/04/22 00:40:53;;;;;;;21.15;17.67;;;;;;;10.80;68.09;100281.91;685914;28;1231;-82
2023/04/22 00:41:14;;;;;;;20.97;17.70;;;;;;;10.82;68.22;100288.06;685807;28;1217;-84
2023/04/22 00:41:35;;;;;;;20.13;17.25;;;;;;;10.86;68.01;100296.84;685578;28;1911;-84
2023/04/22 00:41:56;;;;;;;21.77;18.08;;;;;;;10.89;67.92;100303.00;685944;28;1099;-84
2023/04/22 00:42:16;;;;;;;23.48;18.30;;;;;;;10.80;68.18;100289.75;688400;28;1467;-84
2023/04/22 00:42:38;;;;;;;25.60;19.08;;;;;;;10.87;68.39;100299.47;685801;28;1296;-83
2023/04/22 00:43:01;;;;;;;23.63;18.60;;;;;;;10.88;68.22;100301.22;685861;28;1399;-83
2023/04/22 00:43:22;;;;;;;22.58;18.45;;;;;;;10.78;68.18;100287.13;683225;28;1321;-84
2023/04/22 00:43:43;;;;;;;21.83;18.63;;;;;;;10.88;68.52;100295.13;688641;28;1319;-84
2023/04/22 00:44:07;;;;;;;23.13;18.80;;;;;;;10.79;68.38;100283.66;685888;28;1175;-84
2023/04/22 00:44:29;;;;;;;23.67;19.27;;;;;;;10.85;68.17;100295.94;685311;28;1452;-85
2023/04/22 00:44:50;;;;;;;23.33;19.33;;;;;;;10.87;67.86;100296.84;688658;28;1376;-84
2023/04/22 00:45:16;;;;;;;22.73;19.35;;;;;;;10.83;68.10;100295.03;688463;28;1261;-84
2023/04/22 00:45:36;;;;;;;22.20;18.95;;;;;;;10.75;68.10;100294.03;685814;28;1340;-84
2023/04/22 00:45:57;;;;;;;21.63;18.70;;;;;;;10.76;68.13;100285.34;680609;28;1106;-84
2023/04/22 00:46:19;;;;;;;22.23;18.55;;;;;;;10.70;68.13;100275.66;683156;28;1358;-84
2023/04/22 00:46:40;;;;;;;21.85;18.60;;;;;;;10.77;68.21;100292.31;680508;28;1388;-84
2023/04/22 00:47:01;;;;;;;22.70;18.60;;;;;;;10.80;68.25;100292.34;683303;28;1313;-84
2023/04/22 00:47:25;;;;;;;22.45;18.80;;;;;;;10.75;68.36;100294.03;685734;28;1059;-84
2023/04/22 00:47:47;;;;;;;23.02;18.83;;;;;;;10.71;68.66;100297.41;685974;28;1339;-84
2023/04/22 00:48:08;;;;;;;23.98;19.38;;;;;;;10.77;68.41;100294.91;683350;28;1258;-84
2023/04/22 00:48:39;;;;;;;25.20;19.80;;;;;;;10.72;68.66;100291.34;683189;29;1085;-84
2023/04/22 00:49:00;;;;;;;24.77;19.80;;;;;;;10.66;68.68;100279.94;685792;28;1219;-84
2023/04/22 00:49:21;;;;;;;24.05;20.23;;;;;;;10.77;68.50;100294.91;683190;29;1075;-83
2023/04/22 00:49:42;;;;;;;24.60;20.35;;;;;;;10.71;68.63;100292.19;685897;28;1204;-84
2023/04/22 00:50:04;;;;;;;24.17;19.60;;;;;;;10.74;68.59;100294.88;685678;28;1182;-83
2023/04/22 00:50:25;;;;;;;23.55;19.58;;;;;;;10.72;68.55;100288.72;683091;28;1330;-84
2023/04/22 00:50:45;;;;;;;23.90;19.27;;;;;;;10.75;68.48;100296.63;683238;28;1217;-84
2023/04/22 00:51:06;;;;;;;24.13;19.10;;;;;;;10.73;68.63;100290.47;683227;29;1098;-83
2023/04/22 00:51:27;;;;;;;24.20;18.80;;;;;;;10.83;68.45;100308.09;685498;28;1279;-84
2023/04/22 00:51:47;;;;;;;23.67;19.05;;;;;;;10.80;68.48;100297.56;685622;28;834;-84
2023/04/22 00:52:08;;;;;;;23.97;19.47;;;;;;;10.71;68.40;100292.19;685783;28;1280;-84
2023/04/22 00:52:29;;;;;;;24.23;19.77;;;;;;;10.82;68.56;100306.34;685845;28;1069;-84
2023/04/22 00:52:49;;;;;;;25.05;19.60;;;;;;;10.76;68.33;100296.63;688626;28;1156;-84
2023/04/22 00:53:10;;;;;;;25.30;19.63;;;;;;;10.77;68.48;100292.31;683168;28;1195;-84
2023/04/22 00:53:31;;;;;;;26.05;19.70;;;;;;;10.72;68.34;100286.09;685835;28;1164;-84
2023/04/22 00:53:51;;;;;;;26.10;20.27;;;;;;;10.73;68.43;100290.47;683354;28;1190;-84
2023/04/22 00:54:12;;;;;;;26.45;20.45;;;;;;;10.69;68.42;100285.22;685744;28;1324;-84
2023/04/22 00:54:34;;;;;;;26.73;20.50;;;;;;;10.78;68.42;100299.28;685865;28;1114;-83
2023/04/22 00:54:55;;;;;;;25.65;20.20;;;;;;;10.67;68.60;100288.63;685839;28;1097;-84
2023/04/22 00:55:16;;;;;;;25.85;19.85;;;;;;;10.58;68.83;100302.38;685929;28;1205;-84
2023/04/22 00:55:36;;;;;;;24.60;19.65;;;;;;;10.54;69.15;100300.56;688662;28;931;-84
2023/04/22 00:55:58;;;;;;;25.33;20.00;;;;;;;10.51;69.37;100301.38;685711;28;1247;-84
2023/04/22 00:56:20;;;;;;;23.60;20.15;;;;;;;10.45;69.69;100306.44;685787;28;1060;-83
2023/04/22 00:56:41;;;;;;;24.58;20.30;;;;;;;10.41;69.64;100300.31;685878;28;1250;-84
2023/04/22 00:57:04;;;;;;;24.30;20.10;;;;;;;10.44;69.87;100298.63;685069;28;1282;-84
2023/04/22 00:57:25;;;;;;;24.02;19.65;;;;;;;10.37;69.72;100292.38;683065;29;1103;-84
2023/04/22 00:57:49;;;;;;;24.38;20.00;;;;;;;10.43;70.01;100299.47;683341;29;871;-83
2023/04/22 00:58:10;;;;;;;24.58;20.58;;;;;;;10.36;69.85;100298.44;683152;29;1084;-84
2023/04/22 00:58:32;;;;;;;24.33;20.20;;;;;;;10.36;69.87;100299.31;685719;28;1110;-83
2023/04/22 00:58:53;;;;;;;24.20;19.85;;;;;;;10.28;69.91;100285.25;685765;28;1106;-84
2023/04/22 00:59:14;;;;;;;22.70;19.15;;;;;;;10.28;69.87;100288.72;688469;28;1106;-84
2023/04/22 00:59:35;;;;;;;23.15;19.17;;;;;;;10.33;69.80;100290.56;683080;28;1069;-84
2023/04/22 00:59:55;;;;;;;23.50;19.55;;;;;;;10.24;69.99;100280.78;682985;28;1209;-83
2023/04/22 01:00:18;;;;;;;25.10;19.90;;;;;;;10.26;69.75;100282.59;683125;29;1071;-84
2023/04/22 01:00:39;;;;;;;25.00;20.17;;;;;;;10.29;69.79;100287.00;680427;28;1233;-84
2023/04/22 01:01:00;;;;;;;23.53;19.53;;;;;;;10.27;69.85;100280.88;683182;28;1252;-84
2023/04/22 01:01:21;;;;;;;22.38;19.30;;;;;;;10.20;69.69;100274.59;685725;28;1086;-84
2023/04/22 01:01:43;;;;;;;23.23;19.67;;;;;;;10.24;69.99;100281.69;683194;28;1141;-84
2023/04/22 01:02:04;;;;;;;23.30;19.92;;;;;;;10.22;69.73;100280.75;685792;28;1079;-84
2023/04/22 01:02:25;;;;;;;23.13;19.88;;;;;;;10.28;69.97;100299.16;685774;28;1097;-84
2023/04/22 01:02:46;;;;;;;23.08;19.42;;;;;;;10.28;69.61;100301.75;685854;28;1079;-84
2023/04/22 01:03:07;;;;;;;22.80;19.33;;;;;;;10.21;69.68;100289.41;683049;28;1175;-84
2023/04/22 01:03:29;;;;;;;23.38;19.67;;;;;;;10.23;69.93;100299.91;683031;29;1051;-84
2023/04/22 01:03:51;;;;;;;23.83;20.00;;;;;;;10.19;70.04;100287.63;685859;28;1495;-84
2023/04/22 01:04:13;;;;;;;24.02;19.90;;;;;;;10.09;70.06;100276.97;688398;28;1371;-84
2023/04/22 01:04:33;;;;;;;23.52;19.65;;;;;;;10.07;70.19;100286.50;685613;28;1244;-84
2023/04/22 01:04:54;;;;;;;23.30;19.48;;;;;;;10.13;70.29;100291.84;683068;28;1252;-84
2023/04/22 01:05:15;;;;;;;23.55;19.67;;;;;;;10.04;70.48;100278.63;685708;28;1505;-83
2023/04/22 01:05:36;;;;;;;23.50;19.80;;;;;;;10.04;70.30;100280.31;685756;28;1303;-83
2023/04/22 01:05:57;;;;;;;22.80;19.83;;;;;;;10.05;70.49;100275.16;685951;28;1292;-84
2023/04/22 01:06:21;;;;;;;25.05;19.88;;;;;;;10.02;70.41;100275.09;685584;28;1206;-84
2023/04/22 01:06:43;;;;;;;25.70;19.52;;;;;;;10.09;70.35;100278.72;685729;28;1172;-84
2023/04/22 01:07:03;;;;;;;26.85;19.77;;;;;;;10.10;70.21;100288.28;685650;28;995;-84
2023/04/22 01:07:24;;;;;;;25.02;19.75;;;;;;;10.05;70.45;100275.16;683119;28;1002;-84
2023/04/22 01:07:45;;;;;;;25.50;19.95;;;;;;;10.11;70.45;100283.13;685908;28;1343;-84
2023/04/22 01:08:06;;;;;;;23.27;19.88;;;;;;;10.02;70.41;100267.28;688240;28;1418;-84
2023/04/22 01:08:30;;;;;;;22.83;19.52;;;;;;;10.17;70.24;100294.50;685909;28;906;-84
2023/04/22 01:08:51;;;;;;;21.98;19.20;;;;;;;10.12;70.45;100278.78;685815;28;1184;-84
2023/04/22 01:09:12;;;;;;;22.70;19.20;;;;;;;10.13;70.35;100275.31;685740;28;1399;-84
2023/04/22 01:09:33;;;;;;;22.67;19.88;;;;;;;10.16;70.27;100278.00;682963;29;1179;-84
2023/04/22 01:09:55;;;;;;;23.58;19.85;;;;;;;10.19;70.43;100279.81;680524;29;1309;-83
2023/04/22 01:10:17;;;;;;;24.13;19.55;;;;;;;10.18;70.72;100283.25;683134;29;1129;-84
2023/04/22 01:10:39;;;;;;;25.40;19.70;;;;;;;10.08;70.54;100263.94;683171;28;1263;-84
2023/04/22 01:11:01;;;;;;;25.42;20.20;;;;;;;10.14;70.39;100272.75;685798;28;1229;-84
2023/04/22 01:11:22;;;;;;;24.38;20.27;;;;;;;10.13;70.50;100268.38;688393;28;1297;-84
2023/04/22 01:11:43;;;;;;;24.30;20.60;;;;;;;10.15;70.46;100265.81;685899;28;772;-84
2023/04/22 01:12:04;;;;;;;24.80;20.90;;;;;;;10.16;70.45;100267.56;685687;28;1205;-84
2023/04/22 01:12:25;;;;;;;24.40;21.20;;;;;;;10.13;70.53;100267.50;685446;28;1255;-84
2023/04/22 01:12:46;;;;;;;25.17;20.77;;;;;;;10.21;70.18;100275.50;685835;28;1033;-84
2023/04/22 01:13:07;;;;;;;24.98;20.25;;;;;;;10.26;70.39;100285.19;685754;28;1315;-84
2023/04/22 01:13:29;;;;;;;25.25;19.60;;;;;;;10.22;70.26;100278.16;683047;29;1275;-84
2023/04/22 01:13:50;;;;;;;25.70;20.00;;;;;;;10.24;70.28;100275.56;685803;28;1211;-84
2023/04/22 01:14:11;;;;;;;27.27;20.45;;;;;;;10.32;70.12;100284.44;685774;28;1076;-84
2023/04/22 01:14:33;;;;;;;26.40;20.23;;;;;;;10.25;70.15;100273.00;683180;29;1007;-83
2023/04/22 01:14:54;;;;;;;26.58;20.73;;;;;;;10.25;70.10;100272.13;683160;29;1352;-84
2023/04/22 01:15:15;;;;;;;26.00;20.75;;;;;;;10.32;70.35;100288.81;688442;28;1256;-84
2023/04/22 01:15:36;;;;;;;26.20;21.58;;;;;;;10.33;70.53;100286.19;688499;28;923;-84
2023/04/22 01:15:59;;;;;;;25.40;21.45;;;;;;;10.32;70.17;100284.44;688431;28;1145;-84
2023/04/22 01:16:21;;;;;;;26.25;22.33;;;;;;;10.24;70.32;100281.69;685813;28;1091;-83
2023/04/22 01:16:43;;;;;;;28.25;22.70;;;;;;;10.21;70.51;100280.72;683354;28;1213;-84
2023/04/22 01:17:05;;;;;;;29.27;22.23;;;;;;;10.25;70.65;100282.56;680481;29;1062;-84
2023/04/22 01:17:26;;;;;;;27.52;21.75;;;;;;;10.23;70.38;100276.44;685580;28;1375;-84
2023/04/22 01:17:47;;;;;;;26.27;21.25;;;;;;;10.34;70.47;100290.59;685805;28;1206;-84
2023/04/22 01:18:08;;;;;;;26.35;21.10;;;;;;;10.22;70.51;100272.03;685786;28;1053;-83
2023/04/22 01:18:28;;;;;;;26.13;21.10;;;;;;;10.26;70.62;100279.13;683015;29;1276;-84
2023/04/22 01:18:49;;;;;;;26.15;20.85;;;;;;;10.21;70.68;100270.28;683147;28;1390;-84
2023/04/22 01:19:11;;;;;;;24.67;20.50;;;;;;;10.25;70.69;100283.44;685577;28;1215;-84
2023/04/22 01:19:31;;;;;;;26.10;21.00;;;;;;;10.31;70.40;100287.91;685532;28;1069;-83
2023/04/22 01:20:04;;;;;;;25.58;21.08;;;;;;;10.22;70.44;100272.03;683158;29;1299;-84
2023/04/22 01:20:28;;;;;;;24.15;21.10;;;;;;;10.21;70.50;100270.28;683023;28;1166;-84
2023/04/22 01:20:48;;;;;;;25.33;21.83;;;;;;;10.29;70.59;100279.19;683126;29;807;-84
2023/04/22 01:21:11;;;;;;;26.00;21.92;;;;;;;10.30;70.69;100280.94;685805;28;1136;-84
2023/04/22 01:21:34;;;;;;;26.75;22.02;;;;;;;10.27;70.36;100278.28;682987;28;1911;-83
2023/04/22 01:21:55;;;;;;;26.83;22.27;;;;;;;10.25;70.72;100279.94;685759;28;1343;-84
2023/04/22 01:22:16;;;;;;;26.50;22.08;;;;;;;10.26;70.53;100273.91;683023;28;1058;-84
2023/04/22 01:22:41;;;;;;;27.33;22.17;;;;;;;10.33;70.61;100286.19;685615;28;1354;-84
2023/04/22 01:23:08;;;;;;;27.50;21.75;;;;;;;10.31;70.64;100287.91;685725;28;1379;-84
2023/04/22 01:23:29;;;;;;;28.42;21.50;;;;;;;10.27;70.50;100286.97;685627;28;1415;-84
2023/04/22 01:23:50;;;;;;;26.58;20.92;;;;;;;10.23;70.64;100279.94;683023;29;1248;-83
2023/04/22 01:24:11;;;;;;;26.02;21.13;;;;;;;10.30;70.50;100286.16;688404;28;1111;-84
2023/04/22 01:24:33;;;;;;;27.23;21.60;;;;;;;10.27;70.51;100281.75;688357;28;1301;-83
2023/04/22 01:24:54;;;;;;;26.88;21.48;;;;;;;10.31;70.51;100282.69;685852;28;1215;-84
2023/04/22 01:25:14;;;;;;;26.23;21.60;;;;;;;10.26;70.55;100292.16;682990;29;1300;-83
2023/04/22 01:25:36;;;;;;;26.95;21.75;;;;;;;10.13;70.65;100284.03;683082;29;1262;-84
2023/04/22 01:25:56;;;;;;;27.85;21.85;;;;;;;10.18;70.86;100278.91;685246;28;1247;-84
2023/04/22 01:26:17;;;;;;;27.73;21.63;;;;;;;10.23;70.81;100276.44;685705;28;981;-84
2023/04/22 01:26:38;;;;;;;27.00;21.87;;;;;;;10.32;71.04;100289.66;680402;29;1159;-84
2023/04/22 01:26:58;;;;;;;26.90;22.35;;;;;;;10.27;70.59;100276.53;682949;28;1049;-83
2023/04/22 01:27:19;;;;;;;27.33;22.73;;;;;;;10.35;70.53;100297.56;683007;28;1148;-83
2023/04/22 01:27:40;;;;;;;27.70;22.70;;;;;;;10.36;70.70;100291.50;683190;28;914;-84
2023/04/22 01:28:01;;;;;;;27.33;22.02;;;;;;;10.36;70.39;100286.28;680170;28;1219;-84
2023/04/22 01:28:22;;;;;;;28.15;21.83;;;;;;;10.28;70.51;100277.41;680335;29;999;-84
2023/04/22 01:28:44;;;;;;;28.60;21.88;;;;;;;10.38;70.59;100305.44;683160;28;1414;-84
2023/04/22 01:29:05;;;;;;;29.05;21.73;;;;;;;10.41;70.52;100302.03;688322;28;1231;-84
2023/04/22 01:29:25;;;;;;;27.50;21.53;;;;;;;10.33;70.42;100291.41;685590;28;1186;-83
2023/04/22 01:29:47;;;;;;;26.70;21.67;;;;;;;10.39;70.61;100295.91;683111;29;1388;-84
2023/04/22 01:30:08;;;;;;;27.25;22.33;;;;;;;10.44;70.39;100309.03;688302;28;1258;-83
2023/04/22 01:30:29;;;;;;;27.10;22.48;;;;;;;10.41;70.39;100302.03;688406;28;1008;-83
2023/04/22 01:30:50;;;;;;;27.75;22.13;;;;;;;10.41;70.27;100300.31;688554;28;752;-84
2023/04/22 01:31:11;;;;;;;26.23;21.48;;;;;;;10.39;70.65;100296.78;683054;29;1391;-84
2023/04/22 01:31:32;;;;;;;26.33;21.60;;;;;;;10.33;70.58;100285.34;683061;28;1126;-84
2023/04/22 01:31:54;;;;;;;26.08;21.58;;;;;;;10.33;70.45;100287.94;683151;28;1271;-84
2023/04/22 01:32:15;;;;;;;27.15;22.17;;;;;;;10.28;70.44;100280.91;685663;28;1414;-83
2023/04/22 01:32:37;;;;;;;27.43;22.00;;;;;;;10.39;70.53;100303.72;685683;28;1235;-83
2023/04/22 01:32:58;;;;;;;26.48;21.90;;;;;;;10.31;70.38;100290.50;685256;28;1359;-83
2023/04/22 01:33:18;;;;;;;24.75;21.23;;;;;;;10.31;70.61;100287.91;688036;28;1176;-84
2023/04/22 01:33:39;;;;;;;23.88;20.60;;;;;;;10.32;70.64;100294.03;685699;28;803;-84
2023/04/22 01:34:00;;;;;;;24.13;20.83;;;;;;;10.28;70.53;100293.06;683017;28;1138;-84
2023/04/22 01:34:21;;;;;;;23.60;20.55;;;;;;;10.23;70.50;100279.03;685689;28;1141;-84
2023/04/22 01:34:42;;;;;;;24.02;20.77;;;;;;;10.24;70.52;100286.91;685902;28;859;-83
2023/04/22 01:35:03;;;;;;;23.85;20.88;;;;;;;10.26;70.75;100286.94;682974;28;1162;-83
2023/04/22 01:35:24;;;;;;;24.70;20.50;;;;;;;10.24;70.80;100297.34;683102;29;1130;-84
2023/04/22 01:35:44;;;;;;;24.47;20.20;;;;;;;10.24;70.68;100292.13;685756;28;1046;-84
2023/04/22 01:36:05;;;;;;;25.27;19.88;;;;;;;10.21;70.54;100275.50;680332;29;1078;-84
2023/04/22 01:36:26;;;;;;;25.35;20.55;;;;;;;10.31;70.50;100294.88;680309;29;985;-84
2023/04/22 01:36:48;;;;;;;25.52;20.85;;;;;;;10.28;70.42;100295.69;682961;28;1308;-84
2023/04/22 01:37:09;;;;;;;24.10;20.60;;;;;;;10.31;70.51;100297.47;683043;28;1041;-83
2023/04/22 01:37:30;;;;;;;25.25;21.15;;;;;;;10.25;70.87;100290.38;688412;28;1087;-84
2023/04/22 01:37:51;;;;;;;27.02;21.60;;;;;;;10.27;70.67;100292.19;685758;28;1219;-84
2023/04/22 01:38:12;;;;;;;28.20;22.48;;;;;;;10.28;70.47;100288.72;685687;28;1283;-83
2023/04/22 01:38:33;;;;;;;27.40;21.92;;;;;;;10.31;70.62;100298.34;680181;28;1131;-84
2023/04/22 01:38:54;;;;;;;25.90;21.77;;;;;;;10.27;70.72;100291.31;685865;28;807;-84
2023/04/22 01:39:15;;;;;;;26.10;21.48;;;;;;;10.19;70.72;100278.06;685614;28;1332;-84